createdAt,value
2023-03-06T00:01:28.871Z,37.46
2023-03-06T00:04:30.959Z,37.63
2023-03-06T00:07:33.199Z,37.20
2023-03-06T00:10:35.600Z,37.78
2023-03-06T00:13:38.657Z,37.63
2023-03-06T00:16:40.803Z,37.63
2023-03-06T00:19:42.994Z,37.42
2023-03-06T00:22:45.282Z,37.47
2023-03-06T00:25:47.441Z,37.60
2023-03-06T00:28:49.557Z,37.41
2023-03-06T00:31:52.319Z,37.76
2023-03-06T00:34:55.321Z,37.48
2023-03-06T00:37:59.729Z,38.22
2023-03-06T00:41:10.039Z,36.97
2023-03-06T00:44:12.231Z,37.67
2023-03-06T00:47:17.199Z,37.75
2023-03-06T00:50:19.538Z,37.29
2023-03-06T00:53:21.689Z,37.19
2023-03-06T00:56:25.137Z,37.26
2023-03-06T00:59:30.402Z,37.64
2023-03-06T01:02:32.821Z,37.45
2023-03-06T01:05:36.606Z,37.37
2023-03-06T01:08:38.795Z,37.27
2023-03-06T01:11:41.026Z,37.83
2023-03-06T01:14:43.128Z,37.49
2023-03-06T01:17:45.446Z,37.61
2023-03-06T01:20:47.645Z,37.73
2023-03-06T01:23:49.816Z,37.55
2023-03-06T01:26:51.932Z,37.52
2023-03-06T01:29:54.109Z,37.28
2023-03-06T01:32:56.980Z,37.12
2023-03-06T01:35:59.219Z,37.04
2023-03-06T01:39:01.445Z,37.02
2023-03-06T01:42:03.954Z,37.14
2023-03-06T01:45:09.528Z,36.97
2023-03-06T01:48:12.257Z,37.49
2023-03-06T01:51:14.871Z,37.16
2023-03-06T01:54:52.740Z,37.26
2023-03-06T01:57:57.716Z,37.32
2023-03-06T02:01:00.004Z,37.32
2023-03-06T02:04:02.464Z,37.67
2023-03-06T02:07:08.371Z,37.11
2023-03-06T02:10:10.976Z,36.80
2023-03-06T02:13:13.241Z,37.34
2023-03-06T02:16:16.313Z,37.60
2023-03-06T02:19:35.661Z,37.06
2023-03-06T02:22:44.404Z,37.53
2023-03-06T02:25:48.711Z,37.56
2023-03-06T02:28:50.940Z,37.21
2023-03-06T02:31:53.195Z,37.51
2023-03-06T02:34:57.206Z,37.68
2023-03-06T02:38:03.563Z,37.50
2023-03-06T02:41:08.440Z,37.13
2023-03-06T02:44:10.714Z,37.78
2023-03-06T02:47:13.007Z,37.22
2023-03-06T02:50:15.183Z,36.90
2023-03-06T02:53:18.944Z,37.04
2023-03-06T02:56:21.177Z,36.94
2023-03-06T02:59:23.523Z,37.47
2023-03-06T03:02:26.262Z,37.57
2023-03-06T03:05:28.508Z,36.82
2023-03-06T03:08:37.404Z,37.17
2023-03-06T03:11:40.492Z,37.50
2023-03-06T03:14:42.773Z,37.08
2023-03-06T03:17:45.053Z,37.27
2023-03-06T03:20:47.288Z,36.86
2023-03-06T03:23:49.727Z,37.17
2023-03-06T03:26:51.973Z,37.04
2023-03-06T03:30:00.340Z,37.14
2023-03-06T03:33:04.472Z,37.18
2023-03-06T03:36:08.563Z,37.47
2023-03-06T03:39:15.243Z,37.50
2023-03-06T03:42:18.223Z,36.95
2023-03-06T03:45:20.575Z,37.23
2023-03-06T03:48:22.859Z,37.70
2023-03-06T03:51:25.522Z,37.53
2023-03-06T03:54:30.281Z,37.60
2023-03-06T03:57:32.598Z,37.84
2023-03-06T04:00:35.619Z,37.85
2023-03-06T04:03:45.820Z,37.42
2023-03-06T04:06:50.869Z,37.19
2023-03-06T04:09:54.786Z,37.67
2023-03-06T04:13:00.186Z,37.38
2023-03-06T04:16:04.679Z,37.34
2023-03-06T04:19:08.794Z,37.86
2023-03-06T04:22:11.150Z,37.48
2023-03-06T04:25:14.796Z,37.43
2023-03-06T04:28:17.151Z,37.64
2023-03-06T04:31:19.932Z,37.52
2023-03-06T04:34:22.437Z,37.55
2023-03-06T04:37:25.761Z,37.69
2023-03-06T04:40:31.563Z,37.83
2023-03-06T04:43:39.541Z,37.14
2023-03-06T04:46:41.720Z,38.01
2023-03-06T04:49:43.834Z,38.07
2023-03-06T04:52:46.270Z,38.12
2023-03-06T04:55:48.474Z,38.06
2023-03-06T04:58:53.529Z,38.74
2023-03-06T05:01:55.932Z,38.26
2023-03-06T05:04:58.112Z,38.35
2023-03-06T05:08:00.313Z,38.85
2023-03-06T05:21:28.495Z,38.64
2023-03-06T05:24:33.575Z,38.49
2023-03-06T05:31:09.005Z,38.92
2023-03-06T05:34:28.057Z,39.02
2023-03-06T05:37:31.339Z,39.01
2023-03-06T05:40:34.031Z,39.44
2023-03-06T05:43:36.180Z,39.32
2023-03-06T05:46:38.529Z,39.25
2023-03-06T05:49:41.133Z,39.00
2023-03-06T05:52:43.710Z,39.81
2023-03-06T05:55:45.815Z,39.39
2023-03-06T05:58:48.318Z,39.80
2023-03-06T06:01:53.429Z,39.79
2023-03-06T06:04:55.645Z,39.89
2023-03-06T06:07:57.795Z,40.44
2023-03-06T06:11:00.021Z,39.60
2023-03-06T06:14:02.167Z,40.20
2023-03-06T06:17:04.647Z,40.10
2023-03-06T06:20:10.642Z,39.87
2023-03-06T06:23:13.151Z,39.86
2023-03-06T06:26:15.556Z,40.08
2023-03-06T06:29:18.170Z,40.39
2023-03-06T06:32:20.410Z,41.17
2023-03-06T06:35:23.415Z,40.91
2023-03-06T06:38:25.752Z,40.87
2023-03-06T06:41:46.292Z,41.48
2023-03-06T06:44:51.481Z,41.45
2023-03-06T06:47:53.808Z,41.26
2023-03-06T06:50:59.625Z,41.27
2023-03-06T06:54:01.863Z,41.69
2023-03-06T06:57:04.113Z,42.10
2023-03-06T07:00:09.428Z,41.40
2023-03-06T07:03:14.777Z,42.06
2023-03-06T07:06:17.105Z,42.05
2023-03-06T07:09:24.169Z,42.58
2023-03-06T07:12:26.492Z,42.69
2023-03-06T07:15:30.790Z,41.88
2023-03-06T07:18:32.948Z,41.66
2023-03-06T07:21:35.190Z,42.13
2023-03-06T07:24:37.382Z,41.76
2023-03-06T07:27:40.698Z,42.11
2023-03-06T07:30:43.261Z,41.73
2023-03-06T07:33:45.384Z,42.39
2023-03-06T07:36:47.571Z,42.52
2023-03-06T07:39:49.780Z,42.13
2023-03-06T07:43:09.140Z,42.46
2023-03-06T07:46:19.286Z,42.41
2023-03-06T07:49:21.641Z,42.48
2023-03-06T07:52:26.470Z,43.11
2023-03-06T07:55:29.910Z,42.57
2023-03-06T07:58:32.127Z,42.63
2023-03-06T08:01:36.506Z,43.15
2023-03-06T08:04:39.333Z,43.26
2023-03-06T08:07:42.778Z,43.01
2023-03-06T08:10:49.406Z,42.78
2023-03-06T08:13:52.949Z,43.33
2023-03-06T08:16:56.345Z,43.66
2023-03-06T08:19:58.530Z,43.40
2023-03-06T08:23:00.892Z,43.92
2023-03-06T08:26:06.258Z,44.11
2023-03-06T08:29:10.100Z,44.31
2023-03-06T08:32:12.646Z,44.85
2023-03-06T08:35:15.569Z,44.16
2023-03-06T08:38:18.049Z,44.55
2023-03-06T08:41:22.929Z,44.73
2023-03-06T08:44:26.316Z,45.52
2023-03-06T08:47:32.085Z,44.69
2023-03-06T08:50:41.880Z,45.11
2023-03-06T08:53:45.834Z,44.48
2023-03-06T08:56:48.073Z,44.72
2023-03-06T08:59:50.697Z,44.58
2023-03-06T09:02:57.542Z,44.79
2023-03-06T09:06:02.927Z,44.54
2023-03-06T09:09:06.904Z,44.31
2023-03-06T09:12:09.330Z,44.71
2023-03-06T09:15:12.760Z,44.72
2023-03-06T09:18:14.953Z,44.30
2023-03-06T09:21:17.161Z,44.20
2023-03-06T09:24:19.393Z,43.71
2023-03-06T09:27:22.756Z,42.96
2023-03-06T09:30:25.674Z,42.87
2023-03-06T09:33:28.766Z,42.61
2023-03-06T09:36:31.010Z,42.08
2023-03-06T09:39:34.191Z,41.22
2023-03-06T09:42:37.822Z,41.35
2023-03-06T09:45:40.550Z,40.90
2023-03-06T09:48:45.593Z,41.28
2023-03-06T09:52:08.709Z,40.71
2023-03-06T09:55:27.201Z,40.39
2023-03-06T09:58:32.292Z,40.44
2023-03-06T10:01:44.906Z,40.08
2023-03-06T10:04:55.838Z,40.30
2023-03-06T10:08:03.656Z,40.26
2023-03-06T10:11:09.336Z,40.14
2023-03-06T10:14:33.540Z,39.89
2023-03-06T10:17:38.279Z,39.68
2023-03-06T10:21:13.418Z,39.65
2023-03-06T10:24:38.201Z,39.95
2023-03-06T10:27:46.999Z,39.86
2023-03-06T10:31:00.341Z,39.85
2023-03-06T10:34:28.962Z,39.88
2023-03-06T10:37:32.571Z,39.72
2023-03-06T10:40:46.314Z,39.55
2023-03-06T10:44:00.720Z,39.81
2023-03-06T10:47:30.133Z,40.01
2023-03-06T10:50:34.531Z,39.53
2023-03-06T10:53:49.298Z,39.75
2023-03-06T10:56:54.271Z,40.01
2023-03-06T11:00:15.303Z,39.86
2023-03-06T11:03:30.726Z,39.37
2023-03-06T11:06:44.487Z,40.10
2023-03-06T11:10:02.286Z,39.75
2023-03-06T11:13:07.667Z,39.88
2023-03-06T11:16:44.826Z,39.61
2023-03-06T11:19:50.428Z,39.57
2023-03-06T11:22:56.771Z,39.76
2023-03-06T11:26:24.836Z,39.37
2023-03-06T11:29:44.713Z,39.42
2023-03-06T11:32:56.010Z,39.90
2023-03-06T11:36:12.511Z,39.65
2023-03-06T11:39:26.669Z,39.13
2023-03-06T11:42:43.659Z,39.02
2023-03-06T11:45:51.646Z,38.69
2023-03-06T11:49:14.065Z,38.64
2023-03-06T11:52:37.379Z,38.42
2023-03-06T11:56:19.255Z,38.41
2023-03-06T11:59:40.628Z,38.24
2023-03-06T12:03:11.538Z,38.09
2023-03-06T12:06:37.035Z,38.04
2023-03-06T12:09:56.798Z,37.66
2023-03-06T12:16:50.186Z,38.10
2023-03-06T12:20:32.233Z,38.37
2023-03-06T12:23:40.445Z,37.82
2023-03-06T12:26:59.929Z,38.14
2023-03-06T12:30:25.718Z,37.96
2023-03-06T12:34:02.208Z,38.17
2023-03-06T12:37:20.163Z,38.01
2023-03-06T12:40:26.581Z,37.51
2023-03-06T12:43:56.794Z,37.80
2023-03-06T12:47:15.181Z,37.52
2023-03-06T12:50:26.221Z,37.73
2023-03-06T12:53:35.216Z,37.51
2023-03-06T12:56:42.993Z,37.62
2023-03-06T12:59:49.294Z,37.64
2023-03-06T13:03:17.318Z,38.05
2023-03-06T13:06:30.898Z,38.13
2023-03-06T13:10:13.965Z,38.34
2023-03-06T13:13:41.702Z,38.90
2023-03-06T13:16:43.945Z,38.83
2023-03-06T13:19:46.696Z,39.65
2023-03-06T13:22:49.068Z,39.88
2023-03-06T13:25:51.398Z,40.06
2023-03-06T13:28:54.845Z,40.06
2023-03-06T13:32:00.037Z,39.85
2023-03-06T13:35:02.798Z,40.25
2023-03-06T13:38:17.216Z,41.20
2023-03-06T13:41:22.501Z,41.21
2023-03-06T13:44:24.708Z,41.14
2023-03-06T13:47:29.897Z,41.35
2023-03-06T13:50:45.315Z,41.43
2023-03-06T13:54:01.701Z,41.40
2023-03-06T13:57:10.398Z,41.57
2023-03-06T14:00:57.297Z,41.47
2023-03-06T14:04:11.402Z,41.58
2023-03-06T14:07:33.455Z,41.74
2023-03-06T14:10:37.082Z,41.75
2023-03-06T14:13:47.553Z,41.80
2023-03-06T14:16:53.525Z,41.80
2023-03-06T14:19:59.831Z,42.04
2023-03-06T14:23:28.008Z,41.73
2023-03-06T14:26:40.364Z,41.94
2023-03-06T14:29:42.643Z,41.85
2023-03-06T14:32:45.249Z,41.24
2023-03-06T14:35:51.544Z,40.94
2023-03-06T14:38:56.939Z,41.35
2023-03-06T14:42:29.159Z,42.56
2023-03-06T14:45:31.333Z,42.72
2023-03-06T14:48:45.318Z,42.91
2023-03-06T14:52:00.524Z,43.14
2023-03-06T14:55:02.929Z,42.90
2023-03-06T14:58:14.805Z,43.18
2023-03-06T15:01:23.131Z,43.23
2023-03-06T15:04:42.565Z,43.01
2023-03-06T15:07:45.481Z,43.67
2023-03-06T15:11:04.112Z,43.39
2023-03-06T15:14:06.331Z,43.98
2023-03-06T15:17:41.490Z,43.99
2023-03-06T15:20:54.128Z,43.87
2023-03-06T15:23:57.077Z,43.77
2023-03-06T15:27:14.289Z,44.06
2023-03-06T15:30:27.556Z,44.13
2023-03-06T15:33:30.122Z,43.53
2023-03-06T15:36:35.213Z,43.76
2023-03-06T15:39:39.461Z,43.78
2023-03-06T15:42:42.538Z,43.50
2023-03-06T15:45:44.781Z,43.72
2023-03-06T15:48:54.665Z,44.08
2023-03-06T15:51:56.956Z,44.38
2023-03-06T15:54:59.465Z,43.71
2023-03-06T15:58:04.921Z,43.95
2023-03-06T16:01:08.096Z,44.47
2023-03-06T16:04:10.390Z,44.33
2023-03-06T16:07:13.009Z,44.32
2023-03-06T16:10:23.015Z,44.34
2023-03-06T16:13:27.387Z,44.32
2023-03-06T16:16:36.630Z,44.53
2023-03-06T16:19:38.820Z,44.88
2023-03-06T16:22:41.056Z,44.52
2023-03-06T16:25:45.865Z,44.60
2023-03-06T16:28:49.601Z,44.75
2023-03-06T16:31:52.043Z,44.25
2023-03-06T16:34:54.146Z,44.39
2023-03-06T16:37:56.614Z,44.22
2023-03-06T16:40:58.798Z,44.69
2023-03-06T16:44:00.997Z,44.31
2023-03-06T16:47:03.178Z,44.46
2023-03-06T16:50:07.199Z,44.33
2023-03-06T16:53:09.378Z,44.57
2023-03-06T16:56:17.050Z,44.61
2023-03-06T16:59:19.290Z,44.42
2023-03-06T17:02:21.405Z,43.84
2023-03-06T17:05:24.365Z,44.58
2023-03-06T17:08:26.810Z,43.95
2023-03-06T17:11:29.394Z,44.00
2023-03-06T17:14:33.765Z,44.32
2023-03-06T17:17:36.011Z,44.34
2023-03-06T17:20:38.545Z,44.39
2023-03-06T17:23:40.912Z,44.52
2023-03-06T17:26:44.293Z,44.65
2023-03-06T17:29:46.604Z,44.69
2023-03-06T17:32:48.848Z,44.77
2023-03-06T17:35:57.739Z,44.87
2023-03-06T17:39:01.943Z,44.55
2023-03-06T17:42:04.739Z,44.32
2023-03-06T17:45:09.335Z,44.09
2023-03-06T17:48:11.875Z,44.59
2023-03-06T17:51:14.186Z,44.98
2023-03-06T17:54:16.414Z,44.96
2023-03-06T17:57:18.596Z,45.20
2023-03-06T18:00:22.840Z,45.43
2023-03-06T18:03:25.325Z,45.63
2023-03-06T18:06:30.144Z,46.17
2023-03-06T18:09:32.409Z,46.39
2023-03-06T18:12:34.607Z,45.87
2023-03-06T18:15:40.463Z,45.52
2023-03-06T18:18:42.805Z,46.22
2023-03-06T18:21:47.211Z,45.90
2023-03-06T18:24:49.371Z,46.32
2023-03-06T18:27:51.524Z,45.43
2023-03-06T18:30:53.635Z,45.47
2023-03-06T18:33:58.128Z,45.91
2023-03-06T18:37:00.247Z,45.61
2023-03-06T18:40:02.379Z,45.95
2023-03-06T18:43:04.518Z,45.65
2023-03-06T18:46:07.053Z,45.23
2023-03-06T18:49:11.062Z,45.37
2023-03-06T18:52:13.487Z,45.22
2023-03-06T18:55:15.811Z,45.49
2023-03-06T18:58:19.040Z,45.72
2023-03-06T19:01:22.435Z,45.74
2023-03-06T19:04:25.787Z,46.03
2023-03-06T19:07:27.931Z,45.96
2023-03-06T19:10:31.317Z,46.09
2023-03-06T19:13:33.632Z,46.10
2023-03-06T19:16:35.800Z,45.85
2023-03-06T19:19:38.009Z,45.60
2023-03-06T19:22:40.229Z,45.85
2023-03-06T19:25:42.479Z,45.97
2023-03-06T19:28:45.211Z,46.85
2023-03-06T19:31:47.466Z,46.60
2023-03-06T19:34:49.707Z,46.40
2023-03-06T19:37:52.327Z,46.94
2023-03-06T19:40:54.881Z,46.58
2023-03-06T19:43:59.668Z,46.51
2023-03-06T19:47:01.781Z,46.52
2023-03-06T19:50:04.263Z,46.45
2023-03-06T19:53:07.768Z,46.23
2023-03-06T19:56:31.885Z,46.77
2023-03-06T19:59:34.102Z,46.95
2023-03-06T20:02:36.501Z,46.85
2023-03-06T20:05:45.713Z,46.77
2023-03-06T20:08:48.924Z,46.67
2023-03-06T20:11:51.127Z,47.34
2023-03-06T20:14:53.336Z,47.05
2023-03-06T20:17:56.770Z,46.99
2023-03-06T20:21:00.896Z,47.11
2023-03-06T20:24:04.572Z,47.29
2023-03-06T20:27:06.921Z,47.23
2023-03-06T20:30:09.620Z,47.80
2023-03-06T20:33:11.854Z,47.87
2023-03-06T20:36:27.474Z,47.29
2023-03-06T20:39:29.716Z,47.27
2023-03-06T20:42:32.203Z,47.35
2023-03-06T20:45:34.586Z,47.40
2023-03-06T20:48:36.835Z,47.85
2023-03-06T20:51:39.733Z,47.62
2023-03-06T20:54:41.925Z,47.69
2023-03-06T20:57:44.097Z,47.48
2023-03-06T21:00:46.451Z,47.50
2023-03-06T21:03:49.488Z,47.80
2023-03-06T21:06:53.337Z,46.77
2023-03-06T21:09:55.712Z,47.49
2023-03-06T21:12:57.897Z,47.38
2023-03-06T21:16:03.904Z,47.10
2023-03-06T21:19:06.375Z,47.43
2023-03-06T21:22:08.637Z,47.45
2023-03-06T21:25:12.735Z,47.74
2023-03-06T21:28:15.164Z,46.99
2023-03-06T21:31:19.488Z,47.44
2023-03-06T21:34:21.631Z,47.48
2023-03-06T21:37:23.854Z,47.82
2023-03-06T21:40:26.005Z,47.74
2023-03-06T21:43:28.121Z,47.63
2023-03-06T21:46:30.468Z,48.08
2023-03-06T21:49:32.706Z,48.00
2023-03-06T21:52:34.910Z,47.75
2023-03-06T21:55:40.836Z,48.13
2023-03-06T21:58:43.347Z,47.83
2023-03-06T22:01:47.449Z,47.83
2023-03-06T22:04:53.229Z,48.59
2023-03-06T22:07:59.344Z,48.07
2023-03-06T22:11:08.851Z,48.54
2023-03-06T22:14:11.120Z,48.76
2023-03-06T22:17:13.628Z,48.74
2023-03-06T22:20:15.867Z,48.46
2023-03-06T22:23:18.095Z,48.61
2023-03-06T22:26:20.523Z,48.44
2023-03-06T22:29:23.972Z,47.99
2023-03-06T22:32:26.308Z,48.24
2023-03-06T22:35:28.545Z,48.14
2023-03-06T22:38:30.899Z,48.21
2023-03-06T22:41:33.150Z,48.17
2023-03-06T22:44:35.438Z,48.39
2023-03-06T22:47:37.746Z,48.18
2023-03-06T22:50:39.910Z,48.46
2023-03-06T22:53:42.740Z,48.70
2023-03-06T22:56:44.913Z,48.37
2023-03-06T22:59:47.103Z,47.93
2023-03-06T23:02:49.289Z,48.19
2023-03-06T23:05:51.472Z,48.27
2023-03-06T23:08:56.360Z,48.44
2023-03-06T23:11:58.715Z,48.00
2023-03-06T23:15:19.145Z,48.30
2023-03-06T23:18:40.686Z,48.09
2023-03-06T23:22:01.112Z,47.94
2023-03-06T23:25:21.961Z,48.15
2023-03-06T23:28:24.079Z,48.05
2023-03-06T23:31:28.837Z,48.61
2023-03-06T23:34:30.978Z,48.22
2023-03-06T23:37:33.222Z,48.40
2023-03-06T23:40:36.795Z,48.62
2023-03-06T23:43:39.244Z,48.44
2023-03-06T23:46:41.502Z,48.67
2023-03-06T23:49:43.708Z,48.21
2023-03-06T23:52:46.019Z,48.51
2023-03-06T23:55:50.304Z,48.43
2023-03-06T23:58:52.526Z,48.47
